createdAt,value
2022-08-17T00:00:55.607Z,0.60
2022-08-17T00:03:31.011Z,0.60
2022-08-17T00:06:14.016Z,0.90
2022-08-17T00:08:53.376Z,0.70
2022-08-17T00:11:29.663Z,0.80
2022-08-17T00:14:02.174Z,0.70
2022-08-17T00:16:56.118Z,0.70
2022-08-17T00:19:26.704Z,0.80
2022-08-17T00:22:31.706Z,0.80
2022-08-17T00:24:50.494Z,0.80
2022-08-17T00:27:19.671Z,0.80
2022-08-17T00:29:48.865Z,0.90
2022-08-17T00:33:13.762Z,0.90
2022-08-17T00:35:11.049Z,0.90
2022-08-17T00:37:40.846Z,0.90
2022-08-17T00:40:14.253Z,0.80
2022-08-17T00:42:45.313Z,0.80
2022-08-17T00:45:17.097Z,1.20
2022-08-17T00:47:47.088Z,1.00
2022-08-17T00:50:18.714Z,1.10
2022-08-17T00:52:58.262Z,1.00
2022-08-17T00:55:28.581Z,1.00
2022-08-17T00:58:03.947Z,1.20
2022-08-17T01:00:39.889Z,0.90
2022-08-17T01:03:19.762Z,0.90
2022-08-17T01:05:55.512Z,0.90
2022-08-17T01:08:28.779Z,1.00
2022-08-17T01:11:04.723Z,0.80
2022-08-17T01:13:41.702Z,0.80
2022-08-17T01:16:16.663Z,1.10
2022-08-17T01:18:49.027Z,1.00
2022-08-17T01:22:01.223Z,1.10
2022-08-17T01:24:30.983Z,0.80
2022-08-17T01:27:10.377Z,1.00
2022-08-17T01:30:56.882Z,1.00
2022-08-17T01:32:58.630Z,0.90
2022-08-17T01:35:27.740Z,1.00
2022-08-17T01:37:56.984Z,0.90
2022-08-17T01:40:39.421Z,0.80
2022-08-17T01:43:20.814Z,0.90
2022-08-17T01:46:02.840Z,0.90
2022-08-17T01:48:35.927Z,1.00
2022-08-17T01:51:08.055Z,0.90
2022-08-17T01:53:42.837Z,1.10
2022-08-17T01:56:14.847Z,1.10
2022-08-17T01:58:44.423Z,1.10
2022-08-17T02:01:15.536Z,1.10
2022-08-17T02:03:59.309Z,0.90
2022-08-17T02:06:44.940Z,0.80
2022-08-17T02:09:17.284Z,0.90
2022-08-17T02:11:46.803Z,1.00
2022-08-17T02:14:16.129Z,1.00
2022-08-17T02:16:45.661Z,1.00
2022-08-17T02:19:16.930Z,1.00
2022-08-17T02:21:49.790Z,1.10
2022-08-17T02:24:58.170Z,1.10
2022-08-17T02:27:13.582Z,1.00
2022-08-17T02:29:43.101Z,1.20
2022-08-17T02:32:27.738Z,1.20
2022-08-17T02:37:29.040Z,1.00
2022-08-17T02:40:00.315Z,1.00
2022-08-17T02:42:36.510Z,1.00
2022-08-17T02:45:11.824Z,0.90
2022-08-17T02:47:42.673Z,1.00
2022-08-17T02:50:14.187Z,0.90
2022-08-17T02:52:45.233Z,1.00
2022-08-17T02:55:28.896Z,0.90
2022-08-17T02:57:58.323Z,1.00
2022-08-17T03:00:34.530Z,0.90
2022-08-17T03:03:06.716Z,1.00
2022-08-17T03:05:38.824Z,1.00
2022-08-17T03:08:12.957Z,0.90
2022-08-17T03:10:44.153Z,0.90
2022-08-17T03:13:16.327Z,1.10
2022-08-17T03:15:47.257Z,0.80
2022-08-17T03:18:24.557Z,0.80
2022-08-17T03:20:58.659Z,1.00
2022-08-17T03:23:30.423Z,1.00
2022-08-17T03:26:01.762Z,0.90
2022-08-17T03:28:32.178Z,0.80
2022-08-17T03:31:01.536Z,0.80
2022-08-17T03:33:31.994Z,1.00
2022-08-17T03:36:01.143Z,0.90
2022-08-17T03:38:39.440Z,0.90
2022-08-17T03:41:09.894Z,0.70
2022-08-17T03:43:39.113Z,0.90
2022-08-17T03:46:34.637Z,0.90
2022-08-17T03:49:28.584Z,0.90
2022-08-17T03:52:17.943Z,0.90
2022-08-17T03:55:05.785Z,0.80
2022-08-17T03:57:35.385Z,0.90
2022-08-17T04:00:06.403Z,0.90
2022-08-17T04:02:35.745Z,0.90
2022-08-17T04:05:05.052Z,0.90
2022-08-17T04:07:34.483Z,0.80
2022-08-17T04:10:04.764Z,0.90
2022-08-17T04:12:50.745Z,1.00
2022-08-17T04:15:20.404Z,1.00
2022-08-17T04:17:49.774Z,0.80
2022-08-17T04:20:22.016Z,1.10
2022-08-17T04:23:00.227Z,1.00
2022-08-17T04:25:32.688Z,1.10
2022-08-17T04:28:03.284Z,1.00
2022-08-17T04:30:35.486Z,1.00
2022-08-17T04:33:14.585Z,1.00
2022-08-17T04:35:48.202Z,1.20
2022-08-17T04:38:26.865Z,0.80
2022-08-17T04:41:18.167Z,0.80
2022-08-17T04:43:49.848Z,0.90
2022-08-17T04:46:21.263Z,0.90
2022-08-17T04:48:53.432Z,1.30
2022-08-17T04:51:25.165Z,0.80
2022-08-17T04:53:57.835Z,0.70
2022-08-17T04:56:28.907Z,0.80
2022-08-17T04:59:01.650Z,0.70
2022-08-17T05:01:35.021Z,0.60
2022-08-17T05:04:20.779Z,0.80
2022-08-17T05:07:05.285Z,0.70
2022-08-17T05:09:34.549Z,0.70
2022-08-17T05:12:04.666Z,0.70
2022-08-17T05:14:34.113Z,0.70
2022-08-17T05:17:09.596Z,0.80
2022-08-17T05:19:41.717Z,0.70
2022-08-17T05:22:10.815Z,0.80
2022-08-17T05:24:50.390Z,0.70
2022-08-17T05:27:23.531Z,0.80
2022-08-17T05:29:53.012Z,0.80
2022-08-17T05:32:37.921Z,0.80
2022-08-17T05:35:09.945Z,0.80
2022-08-17T05:37:40.147Z,1.00
2022-08-17T05:40:11.203Z,0.90
2022-08-17T05:42:40.456Z,0.90
2022-08-17T05:45:11.014Z,0.80
2022-08-17T05:47:40.879Z,0.80
2022-08-17T05:50:20.294Z,0.70
2022-08-17T05:53:43.455Z,0.70
2022-08-17T05:56:29.541Z,0.70
2022-08-17T05:59:21.056Z,0.70
2022-08-17T06:02:05.410Z,1.00
2022-08-17T06:04:37.801Z,0.80
2022-08-17T06:07:39.533Z,0.70
2022-08-17T06:10:27.594Z,0.70
2022-08-17T06:13:05.384Z,0.80
2022-08-17T06:16:05.005Z,0.80
2022-08-17T06:19:00.636Z,0.80
2022-08-17T06:21:36.987Z,1.30
2022-08-17T06:24:29.056Z,0.90
2022-08-17T06:29:51.325Z,0.90
2022-08-17T06:32:20.712Z,0.80
2022-08-17T06:34:50.346Z,0.90
2022-08-17T06:37:57.358Z,0.90
2022-08-17T06:40:46.335Z,0.90
2022-08-17T06:43:47.828Z,1.00
2022-08-17T06:46:24.168Z,0.70
2022-08-17T06:49:12.193Z,0.90
2022-08-17T06:52:46.890Z,1.10
2022-08-17T06:55:35.834Z,1.00
2022-08-17T06:58:16.102Z,1.10
2022-08-17T07:00:48.706Z,0.90
2022-08-17T07:03:41.518Z,1.10
2022-08-17T07:06:16.509Z,1.00
2022-08-17T07:09:00.090Z,1.20
2022-08-17T07:11:40.282Z,1.00
2022-08-17T07:14:38.772Z,1.20
2022-08-17T07:17:15.645Z,1.10
2022-08-17T07:19:48.304Z,1.00
2022-08-17T07:23:00.082Z,1.10
2022-08-17T07:25:31.433Z,0.90
2022-08-17T07:28:06.923Z,1.10
2022-08-17T07:30:49.768Z,1.10
2022-08-17T07:33:30.634Z,1.00
2022-08-17T07:36:01.868Z,1.10
2022-08-17T07:38:34.902Z,1.00
2022-08-17T07:41:09.002Z,1.00
2022-08-17T07:46:36.444Z,1.00
2022-08-17T07:49:09.126Z,0.80
2022-08-17T07:51:55.098Z,0.80
2022-08-17T07:54:38.318Z,0.90
2022-08-17T07:57:13.895Z,0.90
2022-08-17T08:00:04.483Z,0.80
2022-08-17T08:02:45.001Z,1.00
2022-08-17T08:05:49.891Z,0.80
2022-08-17T08:08:37.239Z,0.90
2022-08-17T08:11:13.173Z,1.00
2022-08-17T08:13:44.386Z,1.00
2022-08-17T08:16:25.597Z,0.90
2022-08-17T08:18:58.683Z,0.80
2022-08-17T08:21:59.456Z,0.70
2022-08-17T08:24:56.568Z,1.00
2022-08-17T08:28:05.548Z,0.90
2022-08-17T08:30:44.430Z,1.00
2022-08-17T08:33:29.493Z,0.90
2022-08-17T08:37:02.091Z,0.90
2022-08-17T08:39:17.035Z,0.90
2022-08-17T08:42:16.644Z,1.20
2022-08-17T08:45:09.513Z,0.90
2022-08-17T08:47:58.726Z,1.10
2022-08-17T08:50:49.724Z,0.80
2022-08-17T08:53:43.043Z,0.80
2022-08-17T08:56:32.418Z,0.80
2022-08-17T08:59:23.024Z,1.00
2022-08-17T09:02:21.507Z,1.00
2022-08-17T09:05:14.210Z,0.80
2022-08-17T09:07:47.744Z,0.90
2022-08-17T09:10:35.534Z,0.70
2022-08-17T09:13:28.017Z,0.90
2022-08-17T09:16:07.766Z,1.00
2022-08-17T09:19:01.661Z,0.90
2022-08-17T09:21:59.515Z,0.80
2022-08-17T09:24:38.437Z,0.90
2022-08-17T09:27:08.046Z,1.00
2022-08-17T09:29:43.989Z,0.90
2022-08-17T09:32:20.849Z,0.90
2022-08-17T09:34:57.387Z,0.90
2022-08-17T09:37:56.972Z,1.00
2022-08-17T09:41:00.053Z,1.00
2022-08-17T09:46:28.776Z,0.90
2022-08-17T09:49:10.407Z,0.80
2022-08-17T09:51:46.387Z,1.00
2022-08-17T09:54:47.316Z,0.90
2022-08-17T09:57:41.743Z,0.90
2022-08-17T10:00:35.118Z,0.80
2022-08-17T10:03:18.964Z,1.00
2022-08-17T10:06:21.755Z,0.90
2022-08-17T10:09:08.226Z,0.80
2022-08-17T10:12:04.261Z,0.80
2022-08-17T10:14:44.134Z,0.90
2022-08-17T10:17:28.768Z,0.70
2022-08-17T10:20:10.528Z,0.70
2022-08-17T10:23:08.737Z,0.80
2022-08-17T10:26:04.248Z,0.90
2022-08-17T10:28:59.356Z,0.70
2022-08-17T10:32:00.283Z,0.70
2022-08-17T10:35:07.737Z,0.70
2022-08-17T10:37:52.840Z,0.70
2022-08-17T10:40:24.076Z,0.70
2022-08-17T10:43:19.379Z,0.70
2022-08-17T10:46:29.996Z,0.70
2022-08-17T10:49:23.447Z,0.60
2022-08-17T10:51:56.106Z,0.60
2022-08-17T10:54:25.423Z,0.70
2022-08-17T10:56:57.596Z,0.70
2022-08-17T10:59:51.883Z,0.70
2022-08-17T11:02:28.581Z,0.90
2022-08-17T11:05:23.032Z,0.70
2022-08-17T11:08:29.721Z,0.60
2022-08-17T11:11:26.462Z,0.50
2022-08-17T11:14:22.132Z,0.60
2022-08-17T11:17:06.858Z,0.60
2022-08-17T11:19:45.411Z,0.60
2022-08-17T11:22:34.759Z,0.70
2022-08-17T11:25:18.451Z,0.60
2022-08-17T11:27:54.228Z,0.60
2022-08-17T11:30:59.790Z,0.70
2022-08-17T11:33:36.791Z,0.50
2022-08-17T11:36:22.563Z,0.60
2022-08-17T11:38:58.359Z,0.60
2022-08-17T11:42:06.271Z,0.80
2022-08-17T11:44:43.070Z,0.60
2022-08-17T11:48:15.981Z,0.60
2022-08-17T11:51:26.538Z,0.50
2022-08-17T11:54:21.618Z,0.60
2022-08-17T11:56:47.676Z,0.60
2022-08-17T11:59:36.575Z,0.60
2022-08-17T12:02:32.536Z,0.60
2022-08-17T12:05:26.109Z,0.70
2022-08-17T12:08:18.194Z,0.70
2022-08-17T12:11:00.256Z,0.60
2022-08-17T12:13:39.406Z,0.60
2022-08-17T12:16:16.567Z,0.50
2022-08-17T12:18:59.386Z,0.40
2022-08-17T12:22:05.607Z,0.40
2022-08-17T12:24:59.774Z,0.50
2022-08-17T12:28:04.513Z,0.40
2022-08-17T12:30:23.666Z,0.50
2022-08-17T12:32:54.207Z,0.50
2022-08-17T12:35:33.558Z,0.50
2022-08-17T12:38:06.958Z,0.40
2022-08-17T12:40:58.638Z,0.50
2022-08-17T12:43:33.488Z,0.40
2022-08-17T12:46:13.466Z,0.50
2022-08-17T12:48:55.088Z,0.50
2022-08-17T12:51:29.753Z,0.40
2022-08-17T12:53:58.836Z,0.40
2022-08-17T12:56:28.962Z,0.30
2022-08-17T12:58:58.698Z,0.40
2022-08-17T13:01:35.593Z,0.40
2022-08-17T13:04:07.640Z,0.40
2022-08-17T13:06:37.872Z,0.50
2022-08-17T13:09:19.588Z,0.40
2022-08-17T13:11:56.309Z,0.50
2022-08-17T13:14:26.142Z,0.50
2022-08-17T13:17:01.927Z,0.40
2022-08-17T13:19:40.357Z,0.50
2022-08-17T13:22:13.287Z,0.50
2022-08-17T13:24:53.633Z,0.40
2022-08-17T13:27:25.602Z,0.90
2022-08-17T13:30:00.150Z,0.50
2022-08-17T13:32:33.462Z,0.70
2022-08-17T13:35:32.412Z,0.70
2022-08-17T13:38:15.900Z,0.80
2022-08-17T13:40:54.136Z,0.90
2022-08-17T13:43:40.619Z,1.10
2022-08-17T13:46:18.876Z,0.90
2022-08-17T13:49:01.976Z,0.90
2022-08-17T13:51:37.179Z,0.90
2022-08-17T13:54:21.308Z,0.90
2022-08-17T13:57:04.776Z,0.80
2022-08-17T13:59:54.993Z,0.80
2022-08-17T14:02:28.575Z,0.80
2022-08-17T14:05:06.110Z,0.80
2022-08-17T14:07:39.543Z,0.90
2022-08-17T14:10:21.865Z,0.90
2022-08-17T14:12:54.472Z,0.90
2022-08-17T14:15:56.210Z,0.90
2022-08-17T14:21:14.284Z,1.00
2022-08-17T14:23:49.104Z,0.80
2022-08-17T14:26:25.819Z,0.60
2022-08-17T14:28:57.127Z,1.00
2022-08-17T14:31:31.871Z,0.90
2022-08-17T14:34:05.841Z,0.80
2022-08-17T14:36:36.425Z,0.90
2022-08-17T14:39:08.337Z,1.00
2022-08-17T14:41:40.179Z,0.90
2022-08-17T14:44:13.729Z,0.90
2022-08-17T14:46:46.065Z,0.90
2022-08-17T14:49:16.875Z,0.90
2022-08-17T14:51:47.355Z,0.90
2022-08-17T14:54:32.952Z,0.80
2022-08-17T14:57:25.753Z,0.70
2022-08-17T14:59:57.073Z,1.10
2022-08-17T15:02:29.425Z,0.90
2022-08-17T15:05:06.417Z,1.00
2022-08-17T15:07:37.492Z,1.00
2022-08-17T15:10:10.201Z,0.90
2022-08-17T15:12:42.648Z,0.90
2022-08-17T15:15:17.265Z,1.00
2022-08-17T15:17:49.139Z,1.10
2022-08-17T15:20:25.412Z,1.00
2022-08-17T15:23:00.272Z,0.80
2022-08-17T15:25:36.778Z,0.80
2022-08-17T15:28:09.149Z,1.00
2022-08-17T15:30:46.292Z,0.90
2022-08-17T15:33:30.477Z,0.90
2022-08-17T15:36:15.003Z,1.00
2022-08-17T15:38:53.143Z,1.00
2022-08-17T15:41:26.081Z,0.80
2022-08-17T15:43:59.091Z,1.00
2022-08-17T15:46:31.082Z,1.10
2022-08-17T15:49:08.288Z,1.00
2022-08-17T15:51:41.814Z,1.20
2022-08-17T15:54:18.870Z,0.80
2022-08-17T15:56:58.256Z,0.90
2022-08-17T15:59:32.261Z,1.10
2022-08-17T16:04:57.129Z,0.80
2022-08-17T16:07:27.763Z,1.00
2022-08-17T16:09:57.164Z,0.80
2022-08-17T16:12:27.054Z,0.90
2022-08-17T16:14:57.774Z,0.60
2022-08-17T16:17:40.151Z,0.60
2022-08-17T16:20:20.472Z,0.60
2022-08-17T16:22:51.573Z,0.90
2022-08-17T16:25:48.453Z,0.60
2022-08-17T16:28:16.714Z,0.80
2022-08-17T16:30:46.595Z,0.80
2022-08-17T16:33:17.175Z,0.80
2022-08-17T16:35:46.591Z,0.70
2022-08-17T16:38:16.003Z,0.80
2022-08-17T16:40:44.988Z,0.70
2022-08-17T16:43:14.722Z,0.90
2022-08-17T16:45:46.445Z,0.90
2022-08-17T16:51:03.556Z,0.90
2022-08-17T16:53:34.118Z,1.00
2022-08-17T16:56:04.192Z,0.90
2022-08-17T16:58:33.334Z,1.20
2022-08-17T17:01:02.547Z,1.00
2022-08-17T17:03:33.243Z,0.90
2022-08-17T17:06:23.171Z,0.80
2022-08-17T17:09:17.335Z,0.90
2022-08-17T17:11:53.291Z,0.90
2022-08-17T17:14:28.843Z,0.90
2022-08-17T17:17:25.117Z,1.20
2022-08-17T17:20:22.386Z,0.90
2022-08-17T17:23:18.976Z,1.00
2022-08-17T17:26:15.902Z,1.10
2022-08-17T17:29:04.875Z,0.90
2022-08-17T17:31:51.790Z,1.00
2022-08-17T17:34:22.998Z,0.90
2022-08-17T17:36:57.183Z,1.10
2022-08-17T17:39:45.156Z,1.00
2022-08-17T17:42:21.522Z,0.80
2022-08-17T17:45:20.861Z,1.00
2022-08-17T17:47:50.546Z,1.30
2022-08-17T17:50:29.533Z,1.00
2022-08-17T17:53:09.751Z,1.00
2022-08-17T17:56:07.003Z,0.90
2022-08-17T17:59:30.475Z,0.90
2022-08-17T18:05:03.216Z,1.10
2022-08-17T18:08:02.109Z,1.00
2022-08-17T18:10:58.404Z,0.90
2022-08-17T18:14:15.103Z,1.10
2022-08-17T18:16:45.905Z,0.90
2022-08-17T18:19:20.348Z,1.20
2022-08-17T18:22:03.085Z,1.10
2022-08-17T18:24:36.685Z,1.20
2022-08-17T18:27:38.534Z,1.00
2022-08-17T18:30:13.787Z,0.90
2022-08-17T18:32:47.098Z,1.10
2022-08-17T18:35:19.466Z,1.00
2022-08-17T18:37:54.294Z,0.90
2022-08-17T18:40:30.724Z,0.80
2022-08-17T18:43:14.909Z,1.00
2022-08-17T18:45:50.808Z,1.10
2022-08-17T18:48:28.764Z,1.00
2022-08-17T18:51:19.154Z,0.90
2022-08-17T18:54:21.329Z,1.00
2022-08-17T18:57:00.261Z,1.10
2022-08-17T18:59:44.857Z,1.20
2022-08-17T19:02:41.798Z,0.90
2022-08-17T19:05:33.737Z,1.10
2022-08-17T19:08:36.413Z,1.10
2022-08-17T19:11:27.489Z,1.10
2022-08-17T19:14:03.167Z,1.00
2022-08-17T19:17:09.881Z,1.10
2022-08-17T19:20:16.415Z,1.00
2022-08-17T19:22:55.614Z,1.20
2022-08-17T19:25:34.235Z,1.20
2022-08-17T19:28:22.535Z,1.20
2022-08-17T19:31:04.198Z,1.00
2022-08-17T19:33:34.974Z,1.00
2022-08-17T19:36:08.494Z,1.20
2022-08-17T19:39:09.947Z,1.30
2022-08-17T19:41:53.602Z,1.20
2022-08-17T19:44:40.882Z,1.30
2022-08-17T19:47:30.450Z,1.10
2022-08-17T19:50:43.522Z,1.20
2022-08-17T19:54:04.392Z,1.30
2022-08-17T19:56:46.854Z,1.20
2022-08-17T19:59:36.036Z,1.30
2022-08-17T20:02:37.565Z,1.50
2022-08-17T20:05:14.444Z,1.60
2022-08-17T20:07:44.351Z,1.60
2022-08-17T20:10:24.385Z,1.50
2022-08-17T20:12:56.766Z,1.40
2022-08-17T20:15:32.624Z,1.40
2022-08-17T20:18:06.347Z,1.40
2022-08-17T20:20:58.971Z,1.10
2022-08-17T20:23:31.763Z,1.60
2022-08-17T20:26:22.151Z,1.20
2022-08-17T20:29:12.453Z,1.40
2022-08-17T20:32:11.151Z,1.20
2022-08-17T20:34:40.556Z,1.50
2022-08-17T20:37:16.053Z,1.30
2022-08-17T20:39:50.936Z,1.30
2022-08-17T20:42:23.305Z,1.30
2022-08-17T20:44:58.765Z,1.40
2022-08-17T20:47:34.794Z,1.40
2022-08-17T20:50:08.987Z,1.30
2022-08-17T20:52:51.782Z,1.50
2022-08-17T20:55:51.708Z,1.70
2022-08-17T20:58:31.086Z,1.40
2022-08-17T21:01:12.996Z,1.90
2022-08-17T21:03:51.041Z,2.00
2022-08-17T21:06:23.583Z,1.80
2022-08-17T21:09:16.756Z,1.70
2022-08-17T21:12:04.273Z,2.30
2022-08-17T21:15:01.297Z,1.40
2022-08-17T21:18:00.248Z,1.40
2022-08-17T21:20:58.783Z,1.80
2022-08-17T21:23:57.781Z,2.00
2022-08-17T21:26:51.116Z,1.60
2022-08-17T21:29:31.019Z,1.70
2022-08-17T21:32:03.099Z,1.40
2022-08-17T21:34:40.956Z,1.80
2022-08-17T21:37:20.013Z,2.00
2022-08-17T21:40:03.085Z,1.90
2022-08-17T21:42:39.157Z,1.30
2022-08-17T21:45:27.773Z,1.40
2022-08-17T21:48:20.177Z,1.30
2022-08-17T21:51:04.257Z,1.60
2022-08-17T21:53:51.236Z,1.30
2022-08-17T21:56:37.060Z,1.40
2022-08-17T21:59:09.257Z,1.40
2022-08-17T22:01:41.512Z,1.30
2022-08-17T22:04:13.961Z,1.20
2022-08-17T22:06:52.367Z,1.20
2022-08-17T22:09:34.540Z,1.40
2022-08-17T22:12:13.177Z,1.20
2022-08-17T22:14:52.375Z,1.10
2022-08-17T22:17:47.415Z,1.10
2022-08-17T22:20:20.029Z,0.90
2022-08-17T22:23:07.899Z,1.30
2022-08-17T22:25:41.373Z,1.00
2022-08-17T22:28:13.080Z,1.10
2022-08-17T22:30:43.961Z,1.40
2022-08-17T22:33:41.016Z,1.30
2022-08-17T22:36:25.237Z,0.80
2022-08-17T22:38:57.231Z,1.00
2022-08-17T22:41:32.716Z,1.00
2022-08-17T22:44:32.946Z,1.10
2022-08-17T22:47:24.964Z,0.90
2022-08-17T22:50:01.533Z,1.30
2022-08-17T22:52:36.113Z,0.90
2022-08-17T22:55:33.920Z,0.80
2022-08-17T22:58:35.280Z,1.10
2022-08-17T23:01:29.251Z,1.10
2022-08-17T23:04:02.088Z,0.70
2022-08-17T23:06:34.344Z,0.70
2022-08-17T23:09:06.280Z,0.70
2022-08-17T23:11:49.685Z,0.90
2022-08-17T23:14:23.211Z,0.70
2022-08-17T23:16:52.824Z,0.70
2022-08-17T23:19:22.981Z,0.80
2022-08-17T23:21:53.237Z,0.80
2022-08-17T23:24:26.252Z,1.00
2022-08-17T23:27:00.655Z,0.80
2022-08-17T23:29:30.010Z,0.70
2022-08-17T23:32:01.892Z,0.80
2022-08-17T23:34:31.934Z,0.80
2022-08-17T23:37:02.776Z,0.60
2022-08-17T23:39:32.355Z,0.60
2022-08-17T23:42:07.361Z,0.70
2022-08-17T23:44:38.538Z,0.80
2022-08-17T23:47:08.376Z,0.80
2022-08-17T23:49:37.615Z,1.00
2022-08-17T23:52:15.032Z,0.60
2022-08-17T23:54:47.783Z,0.80
2022-08-17T23:57:33.877Z,0.90
